sensor_id;sensor_type;location;lat;lon;timestamp;pressure;altitude;pressure_sealevel;temperature;humidity
71151;BME280;59071;42.138;24.768;2023-04-06T00:01:38;99458.47;;;4.30;58.97
71151;BME280;59071;42.138;24.768;2023-04-06T00:04:04;99445.41;;;4.37;59.25
71151;BME280;59071;42.138;24.768;2023-04-06T00:06:30;99431.84;;;4.09;58.77
71151;BME280;59071;42.138;24.768;2023-04-06T00:08:55;99450.31;;;3.92;59.11
71151;BME280;59071;42.138;24.768;2023-04-06T00:11:21;99451.50;;;3.74;59.95
71151;BME280;59071;42.138;24.768;2023-04-06T00:13:46;99449.00;;;3.80;59.50
71151;BME280;59071;42.138;24.768;2023-04-06T00:16:11;99442.72;;;4.06;59.32
71151;BME280;59071;42.138;24.768;2023-04-06T00:18:37;99441.41;;;4.02;58.50
71151;BME280;59071;42.138;24.768;2023-04-06T00:21:02;99449.50;;;3.67;59.38
71151;BME280;59071;42.138;24.768;2023-04-06T00:23:28;99441.28;;;3.87;59.00
71151;BME280;59071;42.138;24.768;2023-04-06T00:25:53;99438.81;;;3.85;59.01
71151;BME280;59071;42.138;24.768;2023-04-06T00:28:18;99438.31;;;3.82;59.87
71151;BME280;59071;42.138;24.768;2023-04-06T00:30:50;99440.50;;;3.62;60.36
71151;BME280;59071;42.138;24.768;2023-04-06T00:33:17;99440.16;;;3.65;59.95
71151;BME280;59071;42.138;24.768;2023-04-06T00:35:42;99431.91;;;3.92;60.22
71151;BME280;59071;42.138;24.768;2023-04-06T00:38:07;99433.69;;;4.00;59.20
71151;BME280;59071;42.138;24.768;2023-04-06T00:40:33;99431.47;;;4.20;59.08
71151;BME280;59071;42.138;24.768;2023-04-06T00:42:59;99428.59;;;3.99;58.81
71151;BME280;59071;42.138;24.768;2023-04-06T00:45:25;99426.34;;;3.63;59.59
71151;BME280;59071;42.138;24.768;2023-04-06T00:47:50;99423.19;;;3.84;59.20
71151;BME280;59071;42.138;24.768;2023-04-06T00:50:16;99426.75;;;4.07;59.26
71151;BME280;59071;42.138;24.768;2023-04-06T00:52:41;99429.47;;;3.58;59.32
71151;BME280;59071;42.138;24.768;2023-04-06T00:55:07;99420.22;;;3.87;59.11
71151;BME280;59071;42.138;24.768;2023-04-06T00:57:32;99420.19;;;3.95;59.04
71151;BME280;59071;42.138;24.768;2023-04-06T00:59:57;99419.59;;;3.60;60.17
71151;BME280;59071;42.138;24.768;2023-04-06T01:02:23;99422.06;;;3.53;60.12
71151;BME280;59071;42.138;24.768;2023-04-06T01:04:49;99412.38;;;3.05;61.88
71151;BME280;59071;42.138;24.768;2023-04-06T01:07:15;99417.28;;;3.08;61.80
71151;BME280;59071;42.138;24.768;2023-04-06T01:09:40;99412.69;;;3.02;62.59
71151;BME280;59071;42.138;24.768;2023-04-06T01:12:06;99413.69;;;3.42;60.28
71151;BME280;59071;42.138;24.768;2023-04-06T01:14:32;99402.69;;;3.05;61.00
71151;BME280;59071;42.138;24.768;2023-04-06T01:16:58;99403.97;;;3.42;60.64
71151;BME280;59071;42.138;24.768;2023-04-06T01:19:24;99403.50;;;3.30;61.13
71151;BME280;59071;42.138;24.768;2023-04-06T01:21:49;99399.06;;;3.47;60.56
71151;BME280;59071;42.138;24.768;2023-04-06T01:24:15;99395.13;;;3.35;61.16
71151;BME280;59071;42.138;24.768;2023-04-06T01:26:40;99390.84;;;3.42;60.59
71151;BME280;59071;42.138;24.768;2023-04-06T01:29:06;99389.84;;;3.51;60.90
71151;BME280;59071;42.138;24.768;2023-04-06T01:31:31;99382.75;;;3.52;59.88
71151;BME280;59071;42.138;24.768;2023-04-06T01:33:56;99380.16;;;3.11;60.98
71151;BME280;59071;42.138;24.768;2023-04-06T01:36:21;99379.16;;;3.04;61.27
71151;BME280;59071;42.138;24.768;2023-04-06T01:38:47;99375.22;;;3.08;61.38
71151;BME280;59071;42.138;24.768;2023-04-06T01:41:12;99370.47;;;3.28;60.19
71151;BME280;59071;42.138;24.768;2023-04-06T01:43:38;99368.16;;;3.41;59.81
71151;BME280;59071;42.138;24.768;2023-04-06T01:46:03;99369.63;;;3.44;60.34
71151;BME280;59071;42.138;24.768;2023-04-06T01:48:28;99373.06;;;3.61;60.00
71151;BME280;59071;42.138;24.768;2023-04-06T01:50:54;99369.63;;;3.36;59.95
71151;BME280;59071;42.138;24.768;2023-04-06T01:53:20;99370.81;;;3.17;60.26
71151;BME280;59071;42.138;24.768;2023-04-06T01:55:46;99375.56;;;3.38;60.61
71151;BME280;59071;42.138;24.768;2023-04-06T01:58:11;99369.63;;;3.27;60.07
71151;BME280;59071;42.138;24.768;2023-04-06T02:00:36;99354.03;;;3.01;61.10
71151;BME280;59071;42.138;24.768;2023-04-06T02:03:02;99357.81;;;3.15;60.98
71151;BME280;59071;42.138;24.768;2023-04-06T02:05:28;99354.84;;;3.43;60.96
71151;BME280;59071;42.138;24.768;2023-04-06T02:07:54;99356.66;;;3.26;60.09
71151;BME280;59071;42.138;24.768;2023-04-06T02:10:19;99358.59;;;3.40;60.40
71151;BME280;59071;42.138;24.768;2023-04-06T02:12:45;99355.31;;;3.22;59.37
71151;BME280;59071;42.138;24.768;2023-04-06T02:15:10;99361.72;;;3.60;59.23
71151;BME280;59071;42.138;24.768;2023-04-06T02:17:38;99355.31;;;3.46;58.80
71151;BME280;59071;42.138;24.768;2023-04-06T02:20:03;99358.31;;;3.35;59.13
71151;BME280;59071;42.138;24.768;2023-04-06T02:22:28;99357.47;;;3.43;59.45
71151;BME280;59071;42.138;24.768;2023-04-06T02:24:54;99363.06;;;2.99;60.58
71151;BME280;59071;42.138;24.768;2023-04-06T02:27:19;99367.50;;;3.23;60.21
71151;BME280;59071;42.138;24.768;2023-04-06T02:29:44;99365.03;;;3.21;60.70
71151;BME280;59071;42.138;24.768;2023-04-06T02:32:10;99361.75;;;3.11;61.36
71151;BME280;59071;42.138;24.768;2023-04-06T02:34:35;99371.78;;;3.32;61.16
71151;BME280;59071;42.138;24.768;2023-04-06T02:37:00;99373.41;;;3.08;61.81
71151;BME280;59071;42.138;24.768;2023-04-06T02:39:25;99376.72;;;3.19;61.03
71151;BME280;59071;42.138;24.768;2023-04-06T02:41:51;99374.09;;;3.19;60.98
71151;BME280;59071;42.138;24.768;2023-04-06T02:44:16;99376.72;;;3.10;61.98
71151;BME280;59071;42.138;24.768;2023-04-06T02:46:41;99346.78;;;3.36;60.77
71151;BME280;59071;42.138;24.768;2023-04-06T02:49:07;99378.34;;;3.03;61.51
71151;BME280;59071;42.138;24.768;2023-04-06T02:51:32;99371.94;;;3.14;61.61
71151;BME280;59071;42.138;24.768;2023-04-06T02:53:58;99371.78;;;3.24;60.82
71151;BME280;59071;42.138;24.768;2023-04-06T02:56:23;99377.81;;;2.83;62.04
71151;BME280;59071;42.138;24.768;2023-04-06T02:58:48;99382.63;;;3.12;61.81
71151;BME280;59071;42.138;24.768;2023-04-06T03:01:14;99374.56;;;2.98;62.08
71151;BME280;59071;42.138;24.768;2023-04-06T03:03:40;99374.75;;;3.21;61.46
71151;BME280;59071;42.138;24.768;2023-04-06T03:06:05;99370.78;;;3.00;61.41
71151;BME280;59071;42.138;24.768;2023-04-06T03:08:30;99374.38;;;2.74;61.96
71151;BME280;59071;42.138;24.768;2023-04-06T03:10:56;99374.22;;;2.84;62.16
71151;BME280;59071;42.138;24.768;2023-04-06T03:13:21;99372.75;;;2.90;62.09
71151;BME280;59071;42.138;24.768;2023-04-06T03:15:46;99375.88;;;3.02;62.05
71151;BME280;59071;42.138;24.768;2023-04-06T03:18:11;99378.31;;;2.79;63.09
71151;BME280;59071;42.138;24.768;2023-04-06T03:20:37;99375.66;;;2.62;63.56
71151;BME280;59071;42.138;24.768;2023-04-06T03:23:02;99374.03;;;2.78;63.19
71151;BME280;59071;42.138;24.768;2023-04-06T03:25:27;99379.09;;;2.54;63.13
71151;BME280;59071;42.138;24.768;2023-04-06T03:27:53;99379.75;;;2.57;63.99
71151;BME280;59071;42.138;24.768;2023-04-06T03:30:18;99380.31;;;2.77;62.94
71151;BME280;59071;42.138;24.768;2023-04-06T03:32:43;99369.16;;;2.99;62.44
71151;BME280;59071;42.138;24.768;2023-04-06T03:35:09;99371.25;;;2.79;63.42
71151;BME280;59071;42.138;24.768;2023-04-06T03:37:35;99370.38;;;2.46;64.14
71151;BME280;59071;42.138;24.768;2023-04-06T03:40:00;99374.50;;;2.48;64.48
71151;BME280;59071;42.138;24.768;2023-04-06T03:42:25;99378.56;;;2.43;63.81
71151;BME280;59071;42.138;24.768;2023-04-06T03:44:51;99383.09;;;2.75;63.94
71151;BME280;59071;42.138;24.768;2023-04-06T03:47:16;99381.25;;;2.67;64.15
71151;BME280;59071;42.138;24.768;2023-04-06T03:49:42;99376.03;;;2.92;63.18
71151;BME280;59071;42.138;24.768;2023-04-06T03:52:07;99378.78;;;2.58;64.24
71151;BME280;59071;42.138;24.768;2023-04-06T03:54:32;99379.66;;;2.74;63.85
71151;BME280;59071;42.138;24.768;2023-04-06T03:56:58;99375.53;;;2.97;63.04
71151;BME280;59071;42.138;24.768;2023-04-06T03:59:23;99381.13;;;3.02;63.16
71151;BME280;59071;42.138;24.768;2023-04-06T04:01:48;99382.72;;;2.62;63.53
71151;BME280;59071;42.138;24.768;2023-04-06T04:04:14;99371.59;;;2.76;63.42
71151;BME280;59071;42.138;24.768;2023-04-06T04:06:39;99376.19;;;2.99;63.00
71151;BME280;59071;42.138;24.768;2023-04-06T04:09:04;99371.94;;;3.14;63.01
71151;BME280;59071;42.138;24.768;2023-04-06T04:11:30;99367.84;;;3.28;62.54
71151;BME280;59071;42.138;24.768;2023-04-06T04:13:55;99375.00;;;3.67;60.82
71151;BME280;59071;42.138;24.768;2023-04-06T04:16:20;99374.22;;;3.50;61.40
71151;BME280;59071;42.138;24.768;2023-04-06T04:18:45;99368.13;;;3.66;60.94
71151;BME280;59071;42.138;24.768;2023-04-06T04:21:13;99370.69;;;3.82;60.36
71151;BME280;59071;42.138;24.768;2023-04-06T04:23:38;99371.25;;;3.69;60.52
71151;BME280;59071;42.138;24.768;2023-04-06T04:26:04;99360.94;;;4.07;60.07
71151;BME280;59071;42.138;24.768;2023-04-06T04:28:30;99368.53;;;3.94;59.65
71151;BME280;59071;42.138;24.768;2023-04-06T04:30:55;99360.53;;;4.19;58.87
71151;BME280;59071;42.138;24.768;2023-04-06T04:33:20;99364.53;;;4.46;58.27
71151;BME280;59071;42.138;24.768;2023-04-06T04:35:45;99374.06;;;4.47;58.25
71151;BME280;59071;42.138;24.768;2023-04-06T04:38:11;99361.63;;;4.64;57.33
71151;BME280;59071;42.138;24.768;2023-04-06T04:40:36;99368.13;;;4.99;56.96
71151;BME280;59071;42.138;24.768;2023-04-06T04:43:01;99365.19;;;5.55;54.76
71151;BME280;59071;42.138;24.768;2023-04-06T04:45:26;99364.16;;;5.03;55.87
71151;BME280;59071;42.138;24.768;2023-04-06T04:47:52;99373.03;;;5.02;56.31
71151;BME280;59071;42.138;24.768;2023-04-06T04:50:17;99364.78;;;4.82;56.59
71151;BME280;59071;42.138;24.768;2023-04-06T04:52:42;99360.63;;;5.11;55.77
71151;BME280;59071;42.138;24.768;2023-04-06T04:55:08;99367.00;;;5.55;55.00
71151;BME280;59071;42.138;24.768;2023-04-06T04:57:33;99365.69;;;5.36;54.95
71151;BME280;59071;42.138;24.768;2023-04-06T04:59:58;99368.31;;;4.98;55.51
71151;BME280;59071;42.138;24.768;2023-04-06T05:02:23;99362.63;;;4.86;56.26
71151;BME280;59071;42.138;24.768;2023-04-06T05:04:49;99358.75;;;4.97;56.02
71151;BME280;59071;42.138;24.768;2023-04-06T05:07:14;99355.19;;;4.89;55.91
71151;BME280;59071;42.138;24.768;2023-04-06T05:09:40;99354.47;;;4.96;55.76
71151;BME280;59071;42.138;24.768;2023-04-06T05:12:05;99351.00;;;4.72;55.99
71151;BME280;59071;42.138;24.768;2023-04-06T05:14:31;99356.94;;;5.20;55.40
71151;BME280;59071;42.138;24.768;2023-04-06T05:16:56;99348.53;;;5.17;55.26
71151;BME280;59071;42.138;24.768;2023-04-06T05:19:21;99352.28;;;5.60;54.18
71151;BME280;59071;42.138;24.768;2023-04-06T05:21:47;99354.25;;;5.88;53.14
71151;BME280;59071;42.138;24.768;2023-04-06T05:24:12;99353.00;;;5.84;53.53
71151;BME280;59071;42.138;24.768;2023-04-06T05:26:37;99339.81;;;5.99;52.88
71151;BME280;59071;42.138;24.768;2023-04-06T05:29:03;99355.84;;;5.97;52.79
71151;BME280;59071;42.138;24.768;2023-04-06T05:31:28;99354.22;;;5.96;53.18
71151;BME280;59071;42.138;24.768;2023-04-06T05:33:54;99348.38;;;6.01;53.21
71151;BME280;59071;42.138;24.768;2023-04-06T05:36:19;99356.47;;;6.65;51.85
71151;BME280;59071;42.138;24.768;2023-04-06T05:38:44;99346.25;;;6.26;51.90
71151;BME280;59071;42.138;24.768;2023-04-06T05:41:10;99350.41;;;6.72;50.57
71151;BME280;59071;42.138;24.768;2023-04-06T05:43:36;99345.16;;;6.93;51.19
71151;BME280;59071;42.138;24.768;2023-04-06T05:46:01;99344.03;;;7.59;49.42
71151;BME280;59071;42.138;24.768;2023-04-06T05:48:26;99339.75;;;7.93;48.93
71151;BME280;59071;42.138;24.768;2023-04-06T05:50:52;99336.31;;;8.47;46.91
71151;BME280;59071;42.138;24.768;2023-04-06T05:53:18;99339.09;;;8.87;46.70
71151;BME280;59071;42.138;24.768;2023-04-06T05:55:43;99341.13;;;9.18;44.46
71151;BME280;59071;42.138;24.768;2023-04-06T05:58:08;99326.19;;;8.91;45.37
71151;BME280;59071;42.138;24.768;2023-04-06T06:00:34;99327.78;;;8.52;46.20
71151;BME280;59071;42.138;24.768;2023-04-06T06:02:59;99334.38;;;8.89;44.98
71151;BME280;59071;42.138;24.768;2023-04-06T06:05:24;99325.81;;;9.00;44.95
71151;BME280;59071;42.138;24.768;2023-04-06T06:07:50;99315.56;;;8.57;45.11
71151;BME280;59071;42.138;24.768;2023-04-06T06:10:15;99317.22;;;9.38;44.20
71151;BME280;59071;42.138;24.768;2023-04-06T06:12:41;99316.84;;;10.13;43.31
71151;BME280;59071;42.138;24.768;2023-04-06T06:15:06;99308.66;;;10.15;42.73
71151;BME280;59071;42.138;24.768;2023-04-06T06:17:32;99308.63;;;10.22;42.42
71151;BME280;59071;42.138;24.768;2023-04-06T06:19:57;99309.34;;;11.06;42.29
71151;BME280;59071;42.138;24.768;2023-04-06T06:22:22;99314.25;;;11.09;40.56
71151;BME280;59071;42.138;24.768;2023-04-06T06:24:47;99304.19;;;10.86;41.07
71151;BME280;59071;42.138;24.768;2023-04-06T06:27:14;99297.44;;;10.83;40.26
71151;BME280;59071;42.138;24.768;2023-04-06T06:29:40;99313.69;;;10.36;40.74
71151;BME280;59071;42.138;24.768;2023-04-06T06:32:05;99304.38;;;11.16;39.86
71151;BME280;59071;42.138;24.768;2023-04-06T06:34:30;99311.66;;;10.70;40.24
71151;BME280;59071;42.138;24.768;2023-04-06T06:36:56;99312.94;;;10.23;40.90
71151;BME280;59071;42.138;24.768;2023-04-06T06:39:21;99314.09;;;10.40;39.79
71151;BME280;59071;42.138;24.768;2023-04-06T06:41:46;99316.34;;;10.36;41.05
71151;BME280;59071;42.138;24.768;2023-04-06T06:44:12;99311.81;;;11.07;39.80
71151;BME280;59071;42.138;24.768;2023-04-06T06:46:37;99319.19;;;11.05;38.84
71151;BME280;59071;42.138;24.768;2023-04-06T06:49:02;99305.06;;;11.30;38.39
71151;BME280;59071;42.138;24.768;2023-04-06T06:51:28;99313.75;;;10.62;39.46
71151;BME280;59071;42.138;24.768;2023-04-06T06:53:53;99311.31;;;11.61;38.92
71151;BME280;59071;42.138;24.768;2023-04-06T06:56:18;99306.44;;;11.76;38.36
71151;BME280;59071;42.138;24.768;2023-04-06T06:58:44;99309.13;;;11.76;39.01
71151;BME280;59071;42.138;24.768;2023-04-06T07:01:10;99311.97;;;12.48;37.86
71151;BME280;59071;42.138;24.768;2023-04-06T07:03:35;99304.09;;;12.54;37.34
71151;BME280;59071;42.138;24.768;2023-04-06T07:06:00;99299.09;;;12.87;36.43
71151;BME280;59071;42.138;24.768;2023-04-06T07:08:25;99300.63;;;12.23;36.94
71151;BME280;59071;42.138;24.768;2023-04-06T07:10:51;99303.72;;;12.20;37.12
71151;BME280;59071;42.138;24.768;2023-04-06T07:13:17;99308.28;;;12.49;37.57
71151;BME280;59071;42.138;24.768;2023-04-06T07:15:46;99301.78;;;12.57;37.69
71151;BME280;59071;42.138;24.768;2023-04-06T07:18:12;99316.53;;;13.02;36.81
71151;BME280;59071;42.138;24.768;2023-04-06T07:20:37;99306.59;;;13.56;35.86
71151;BME280;59071;42.138;24.768;2023-04-06T07:23:02;99311.09;;;13.79;35.48
71151;BME280;59071;42.138;24.768;2023-04-06T07:25:28;99307.03;;;14.29;35.57
71151;BME280;59071;42.138;24.768;2023-04-06T07:27:54;99317.50;;;13.66;35.59
71151;BME280;59071;42.138;24.768;2023-04-06T07:30:19;99314.47;;;13.27;35.45
71151;BME280;59071;42.138;24.768;2023-04-06T07:32:45;99306.50;;;14.44;34.22
71151;BME280;59071;42.138;24.768;2023-04-06T07:35:10;99310.63;;;14.63;33.55
71151;BME280;59071;42.138;24.768;2023-04-06T07:37:36;99305.78;;;14.60;33.35
71151;BME280;59071;42.138;24.768;2023-04-06T07:40:01;99323.19;;;13.94;34.70
71151;BME280;59071;42.138;24.768;2023-04-06T07:42:26;99300.31;;;13.86;35.34
71151;BME280;59071;42.138;24.768;2023-04-06T07:44:51;99307.75;;;14.82;33.84
71151;BME280;59071;42.138;24.768;2023-04-06T07:47:17;99298.25;;;14.45;33.94
71151;BME280;59071;42.138;24.768;2023-04-06T07:49:42;99305.69;;;14.15;34.23
71151;BME280;59071;42.138;24.768;2023-04-06T07:52:07;99319.38;;;14.18;34.74
71151;BME280;59071;42.138;24.768;2023-04-06T07:54:33;99308.63;;;14.42;34.66
71151;BME280;59071;42.138;24.768;2023-04-06T07:56:58;99297.91;;;14.71;34.24
71151;BME280;59071;42.138;24.768;2023-04-06T07:59:23;99314.31;;;14.74;33.52
71151;BME280;59071;42.138;24.768;2023-04-06T08:01:49;99301.91;;;14.68;34.35
71151;BME280;59071;42.138;24.768;2023-04-06T08:04:14;99305.41;;;14.85;33.36
71151;BME280;59071;42.138;24.768;2023-04-06T08:06:39;99301.28;;;15.12;32.44
71151;BME280;59071;42.138;24.768;2023-04-06T08:09:06;99296.72;;;14.21;34.45
71151;BME280;59071;42.138;24.768;2023-04-06T08:11:31;99300.13;;;14.45;34.86
71151;BME280;59071;42.138;24.768;2023-04-06T08:13:56;99287.84;;;15.29;34.15
71151;BME280;59071;42.138;24.768;2023-04-06T08:16:22;99306.41;;;16.35;31.87
71151;BME280;59071;42.138;24.768;2023-04-06T08:18:48;99294.38;;;16.38;31.44
71151;BME280;59071;42.138;24.768;2023-04-06T08:21:13;99294.66;;;15.92;31.21
71151;BME280;59071;42.138;24.768;2023-04-06T08:23:38;99288.91;;;16.55;31.71
71151;BME280;59071;42.138;24.768;2023-04-06T08:26:04;99289.91;;;16.76;31.16
71151;BME280;59071;42.138;24.768;2023-04-06T08:28:29;99292.09;;;15.80;31.90
71151;BME280;59071;42.138;24.768;2023-04-06T08:30:54;99286.94;;;16.45;31.58
71151;BME280;59071;42.138;24.768;2023-04-06T08:33:20;99287.63;;;16.35;31.85
71151;BME280;59071;42.138;24.768;2023-04-06T08:35:45;99285.81;;;16.41;31.22
71151;BME280;59071;42.138;24.768;2023-04-06T08:38:10;99286.09;;;16.39;32.04
71151;BME280;59071;42.138;24.768;2023-04-06T08:40:39;99277.72;;;16.63;31.64
71151;BME280;59071;42.138;24.768;2023-04-06T08:43:08;99277.53;;;16.75;31.27
71151;BME280;59071;42.138;24.768;2023-04-06T08:45:35;99273.38;;;16.08;31.70
71151;BME280;59071;42.138;24.768;2023-04-06T08:48:00;99281.16;;;16.31;32.06
71151;BME280;59071;42.138;24.768;2023-04-06T08:50:28;99266.81;;;15.98;32.79
71151;BME280;59071;42.138;24.768;2023-04-06T08:52:54;99269.75;;;15.97;31.81
71151;BME280;59071;42.138;24.768;2023-04-06T08:55:20;99264.22;;;16.03;32.19
71151;BME280;59071;42.138;24.768;2023-04-06T08:57:47;99255.13;;;16.59;30.84
71151;BME280;59071;42.138;24.768;2023-04-06T09:00:13;99260.38;;;16.76;31.56
71151;BME280;59071;42.138;24.768;2023-04-06T09:02:39;99249.66;;;16.49;31.90
71151;BME280;59071;42.138;24.768;2023-04-06T09:05:06;99252.38;;;15.99;32.08
71151;BME280;59071;42.138;24.768;2023-04-06T09:07:32;99242.75;;;16.85;30.89
71151;BME280;59071;42.138;24.768;2023-04-06T09:09:57;99246.53;;;16.89;31.18
71151;BME280;59071;42.138;24.768;2023-04-06T09:12:27;99243.44;;;16.48;31.34
71151;BME280;59071;42.138;24.768;2023-04-06T09:14:52;99246.72;;;16.01;32.15
71151;BME280;59071;42.138;24.768;2023-04-06T09:17:28;99236.44;;;16.74;31.16
71151;BME280;59071;42.138;24.768;2023-04-06T09:19:53;99240.13;;;16.95;30.92
71151;BME280;59071;42.138;24.768;2023-04-06T09:22:19;99242.34;;;16.17;31.71
71151;BME280;59071;42.138;24.768;2023-04-06T09:24:46;99234.09;;;16.23;32.47
71151;BME280;59071;42.138;24.768;2023-04-06T09:27:11;99237.47;;;16.41;31.85
71151;BME280;59071;42.138;24.768;2023-04-06T09:29:37;99215.66;;;16.05;32.30
71151;BME280;59071;42.138;24.768;2023-04-06T09:32:05;99218.88;;;15.41;32.66
71151;BME280;59071;42.138;24.768;2023-04-06T09:34:31;99221.63;;;16.39;31.97
71151;BME280;59071;42.138;24.768;2023-04-06T09:36:57;99215.03;;;16.85;31.24
71151;BME280;59071;42.138;24.768;2023-04-06T09:39:23;99210.00;;;16.61;31.55
71151;BME280;59071;42.138;24.768;2023-04-06T09:41:52;99217.25;;;16.60;31.26
71151;BME280;59071;42.138;24.768;2023-04-06T09:44:18;99204.63;;;16.61;30.91
71151;BME280;59071;42.138;24.768;2023-04-06T09:46:44;99217.47;;;16.86;31.12
71151;BME280;59071;42.138;24.768;2023-04-06T09:49:10;99205.78;;;16.11;32.58
71151;BME280;59071;42.138;24.768;2023-04-06T09:51:39;99203.44;;;15.92;31.17
71151;BME280;59071;42.138;24.768;2023-04-06T09:54:05;99208.22;;;16.45;30.98
71151;BME280;59071;42.138;24.768;2023-04-06T09:56:33;99208.97;;;16.35;30.90
71151;BME280;59071;42.138;24.768;2023-04-06T09:59:03;99198.72;;;16.05;30.93
71151;BME280;59071;42.138;24.768;2023-04-06T10:01:31;99205.66;;;16.28;31.94
71151;BME280;59071;42.138;24.768;2023-04-06T10:04:03;99201.00;;;16.77;30.52
71151;BME280;59071;42.138;24.768;2023-04-06T10:06:32;99201.47;;;16.69;29.80
71151;BME280;59071;42.138;24.768;2023-04-06T10:09:00;99202.31;;;15.88;30.93
71151;BME280;59071;42.138;24.768;2023-04-06T10:11:26;99199.75;;;15.98;31.51
71151;BME280;59071;42.138;24.768;2023-04-06T10:13:52;99185.56;;;16.30;31.23
71151;BME280;59071;42.138;24.768;2023-04-06T10:16:17;99182.78;;;16.20;30.13
71151;BME280;59071;42.138;24.768;2023-04-06T10:18:44;99196.75;;;15.95;31.37
71151;BME280;59071;42.138;24.768;2023-04-06T10:21:12;99184.13;;;15.95;30.99
71151;BME280;59071;42.138;24.768;2023-04-06T10:23:40;99188.53;;;15.57;31.71
71151;BME280;59071;42.138;24.768;2023-04-06T10:26:12;99188.38;;;15.91;31.25
71151;BME280;59071;42.138;24.768;2023-04-06T10:28:37;99177.63;;;15.86;30.65
71151;BME280;59071;42.138;24.768;2023-04-06T10:31:05;99178.22;;;15.93;31.29
71151;BME280;59071;42.138;24.768;2023-04-06T10:33:31;99175.69;;;16.09;31.71
71151;BME280;59071;42.138;24.768;2023-04-06T10:35:56;99169.66;;;17.36;29.44
71151;BME280;59071;42.138;24.768;2023-04-06T10:38:34;99169.50;;;17.05;29.72
71151;BME280;59071;42.138;24.768;2023-04-06T10:41:03;99164.38;;;17.56;29.01
71151;BME280;59071;42.138;24.768;2023-04-06T10:43:32;99157.53;;;18.02;29.03
71151;BME280;59071;42.138;24.768;2023-04-06T10:45:59;99151.59;;;17.84;29.07
71151;BME280;59071;42.138;24.768;2023-04-06T10:48:24;99158.34;;;18.02;29.00
71151;BME280;59071;42.138;24.768;2023-04-06T10:50:51;99155.03;;;17.79;29.15
71151;BME280;59071;42.138;24.768;2023-04-06T10:53:21;99154.06;;;17.33;29.71
71151;BME280;59071;42.138;24.768;2023-04-06T10:55:46;99158.78;;;16.73;29.43
71151;BME280;59071;42.138;24.768;2023-04-06T10:58:12;99157.34;;;16.00;30.57
71151;BME280;59071;42.138;24.768;2023-04-06T11:00:43;99142.22;;;16.49;30.48
71151;BME280;59071;42.138;24.768;2023-04-06T11:03:08;99147.97;;;16.63;29.78
71151;BME280;59071;42.138;24.768;2023-04-06T11:05:33;99135.78;;;16.17;30.54
71151;BME280;59071;42.138;24.768;2023-04-06T11:08:00;99137.19;;;17.00;29.58
71151;BME280;59071;42.138;24.768;2023-04-06T11:10:25;99151.13;;;16.54;30.31
71151;BME280;59071;42.138;24.768;2023-04-06T11:12:54;99139.56;;;16.54;30.56
71151;BME280;59071;42.138;24.768;2023-04-06T11:15:19;99130.31;;;16.77;29.48
71151;BME280;59071;42.138;24.768;2023-04-06T11:17:45;99140.16;;;16.61;29.02
71151;BME280;59071;42.138;24.768;2023-04-06T11:20:10;99134.72;;;16.88;28.72
71151;BME280;59071;42.138;24.768;2023-04-06T11:22:36;99117.31;;;16.58;28.19
71151;BME280;59071;42.138;24.768;2023-04-06T11:25:04;99119.22;;;17.06;29.07
71151;BME280;59071;42.138;24.768;2023-04-06T11:27:30;99126.91;;;17.39;28.93
71151;BME280;59071;42.138;24.768;2023-04-06T11:29:57;99132.06;;;17.51;28.78
71151;BME280;59071;42.138;24.768;2023-04-06T11:32:22;99118.75;;;18.08;28.77
71151;BME280;59071;42.138;24.768;2023-04-06T11:34:49;99107.63;;;17.68;28.31
71151;BME280;59071;42.138;24.768;2023-04-06T11:37:14;99119.22;;;17.74;27.81
71151;BME280;59071;42.138;24.768;2023-04-06T11:39:42;99117.53;;;16.52;28.64
71151;BME280;59071;42.138;24.768;2023-04-06T11:42:08;99123.44;;;16.49;29.10
71151;BME280;59071;42.138;24.768;2023-04-06T11:44:34;99119.00;;;16.00;29.55
71151;BME280;59071;42.138;24.768;2023-04-06T11:47:03;99119.22;;;16.63;29.36
71151;BME280;59071;42.138;24.768;2023-04-06T11:49:29;99123.41;;;17.29;28.57
71151;BME280;59071;42.138;24.768;2023-04-06T11:51:55;99119.75;;;17.03;28.37
71151;BME280;59071;42.138;24.768;2023-04-06T11:54:33;99118.19;;;16.32;28.94
71151;BME280;59071;42.138;24.768;2023-04-06T11:56:58;99125.16;;;16.00;29.16
71151;BME280;59071;42.138;24.768;2023-04-06T11:59:25;99112.41;;;16.13;29.73
71151;BME280;59071;42.138;24.768;2023-04-06T12:01:52;99114.75;;;15.77;30.38
71151;BME280;59071;42.138;24.768;2023-04-06T12:04:18;99118.09;;;15.67;30.56
71151;BME280;59071;42.138;24.768;2023-04-06T12:06:43;99105.91;;;15.76;30.18
71151;BME280;59071;42.138;24.768;2023-04-06T12:09:08;99116.47;;;15.88;30.26
71151;BME280;59071;42.138;24.768;2023-04-06T12:11:34;99110.97;;;15.78;30.75
71151;BME280;59071;42.138;24.768;2023-04-06T12:13:59;99115.19;;;15.96;30.73
71151;BME280;59071;42.138;24.768;2023-04-06T12:16:26;99111.88;;;15.61;31.34
71151;BME280;59071;42.138;24.768;2023-04-06T12:18:51;99100.78;;;15.53;31.74
71151;BME280;59071;42.138;24.768;2023-04-06T12:21:17;99104.91;;;15.88;31.21
71151;BME280;59071;42.138;24.768;2023-04-06T12:23:42;99106.31;;;16.22;30.29
71151;BME280;59071;42.138;24.768;2023-04-06T12:26:07;99109.41;;;16.09;31.00
71151;BME280;59071;42.138;24.768;2023-04-06T12:28:33;99109.16;;;16.11;31.36
71151;BME280;59071;42.138;24.768;2023-04-06T12:30:58;99106.06;;;15.97;31.59
71151;BME280;59071;42.138;24.768;2023-04-06T12:33:23;99104.91;;;16.15;30.77
71151;BME280;59071;42.138;24.768;2023-04-06T12:35:49;99114.59;;;16.21;30.86
71151;BME280;59071;42.138;24.768;2023-04-06T12:38:15;99102.78;;;16.17;31.31
71151;BME280;59071;42.138;24.768;2023-04-06T12:40:41;99094.06;;;16.05;31.11
71151;BME280;59071;42.138;24.768;2023-04-06T12:43:06;99108.84;;;15.80;30.99
71151;BME280;59071;42.138;24.768;2023-04-06T12:45:31;99095.06;;;15.71;31.49
71151;BME280;59071;42.138;24.768;2023-04-06T12:47:57;99093.03;;;15.78;31.75